Alto, Georgia
Current Conditions -  °F | °C
As of 7:35 PM on Monday 24 Nov 2014 (Local Time) from KTOC Reporting Station
Clear Clear  
Wind Chill: 60°   Ceiling: Unl
Heat Index: 60°   Visibility: 10mi
Dew Point: 49°   Wind: 3mph
Humidity: 67%   Direction: 270°W
Pressure: 29.86"   Gusts: NA
Location:  34.47°N, 83.57°W
Report Text: KTOC 250035Z AUTO 27003KT 10SM CLR 16/10 A2986 RMK AO2 T01580097
Loading
Personal Weather Stations






























Interactive Weather Map New forecast layout! Learn more

10-Day Weather Forecast

Advertisements
Track Severe Weather on mobile